Brundall, United Kingdom
Current Conditions -  °F | °C
As of 4:50 PM on Friday 31 Oct 2014 (Local Time) from EGSH Reporting Station
Clear Clear  
Wind Chill: 16°   Ceiling: Unl
Heat Index: 16°   Visibility: 6mi
Dew Point: 13°   Wind: 7mph
Humidity: 82%   Direction: 150°SSE
Pressure: 29.97"   Gusts: NA
Location:  52.62°N, 1.44°E
Report Text: EGSH 311650Z 15006KT 100V190 CAVOK 16/13 Q1015
Loading
Personal Weather Stations






























Interactive Weather Map
Tropical Storm Tracking
New forecast layout! Learn more

10-Day Weather Forecast

Advertisements
Track Severe Weather on mobile